Harborside, ME (04642)

21:17 EDT le 27 août 2014 (GMT -0400)
Harborside | Change Station
CLOSE
Current Station
Stations météorologiques personnelles
Location: Brooksville, ME
Altitude: 12 ft
Stations météo à proximité

Alt. 12 ft 44.35 °N, 68.82 °W | Updated 21 seconds ago

Ciel dégagé
Ciel dégagé
66.2 ° F
Paraît 66.2 ° F
N
0.0
Vent Variable Vent de SSO
Gusts 0.0 mph

Aujourd'hui
Haut(e) -- | Bas -- ° F
--% Risque de précip.
Hier
Haut(e) -- | Bas -- ° F
Precip. -- pouce
5:52 AM 7:20 PM
Lune montante, 5% visible
Pression 29.83 pouce
Visibilité 10.0 Miles terrestres
Nuages Nuageux 6000 ft
Point de rosée 64 ° F
Humidité 92%
Précipitations 0.00 pouce
Profondeur de la couche neigeuse Non disponible.
UV 0.0 sur 12
Pollen 7.40 sur 12
Ozone Bon
PM2.5 Bon
Flu Activity Non disponible.
METAR KBHB 280055Z 00000KT 10SM BKN060 19/18 A2983 RMK AO1

More Conditions Fewer Conditions

Pression 29.83 pouce
Visibilité 10.0 Miles terrestres
Nuages Nuageux 6000 ft
Point de rosée 64 ° F
Humidité 92%
Précipitations 0.00 pouce
Profondeur de la couche neigeuse Non disponible.
UV 0.0 sur 12
Pollen 7.40 sur 12
Ozone Bon
PM2.5 Bon
Flu Activity Non disponible.
METAR KBHB 280055Z 00000KT 10SM BKN060 19/18 A2983 RMK AO1

More Conditions Fewer Conditions

10-Day Weather Forecast

Almanac

Astronomie

Aug. 27, 2014 Lever Coucher
Temps réel 05:52 EDT 19:20 EDT
Crépuscule civil 05:21 EDT 19:50 EDT
Crépuscule nautique 04:45 EDT 20:27 EDT
Crépuscule astronomique 04:05 EDT 21:06 EDT
Lune 07:51 EDT (8/27) 20:03 EDT (8/27)
Durée de lumière visible 14h 28m
Longueur du jour
13h 28m
Tomorrow will be 2m 53s shorter.
Lune montante, 5% of the Moon is Illuminated
Aujourd'hui
Lune montante
Sep 2
Premier quartier
Sep 8
Pleine lune
Sep 15
Dernier quartier
Sep 24
Nouveau

Extrêmes aujourd'hui

State Highs State Lows

Community

WunderPhotos

Upload Photos

1,747,842 Photos téléchargées !

Nearby

Qualité de l'air

  Qualité de l'air Indice de la qualité de l'air Polluant
Hier Bon
OZONE
Hier Bon
PM2.5
Actuel Bon
OZONE
Actuel Bon
PM2.5
mercredi Moyen
OZONE
mercredi Bon
PM2.5
jeudi Bon
OZONE
jeudi Bon
PM2.5
vendredi Bon
OZONE
vendredi Bon
PM2.5
samedi Bon
OZONE
samedi Bon
PM2.5

Épaisseur de neige

Station Depth Altitude
Pas de nouvelles chutes de neige

Activité sismique

Ville Distance Mag. Time & Date
No recent earthquake activity has been reported nearby.
Minimum magnitude displayed is 2.5.

Températures des eaux côtières

Lieu Température
Bar Harbor, ME 61.0 ° F
Portland, ME 63.0 ° F

Stations météo à proximité